Time;durP1;ratioP1;P1;durP2;ratioP2;P2;SDS_P1;SDS_P2;PMS_P1;PMS_P2;Temp;Humidity;BMP_temperature;BMP_pressure;BME280_temperature;BME280_humidity;BME280_pressure;Samples;Min_cycle;Max_cycle;Signal;HPM_P1;HPM_P2
2022/01/03 00:00:14;;;;;;;4.9;3.1;;;;;;;;;;;;;
2022/01/03 00:02:40;;;;;;;3.9;2.9;;;;;;;;;;;;;
2022/01/03 00:05:05;;;;;;;8.5;3.6;;;;;;;;;;;;;
2022/01/03 00:07:31;;;;;;;4.1;3.3;;;;;;;;;;;;;
2022/01/03 00:09:57;;;;;;;5.4;3.2;;;;;;;;;;;;;
2022/01/03 00:12:21;;;;;;;4;3;;;;;;;;;;;;;
2022/01/03 00:14:46;;;;;;;5.5;2.8;;;;;;;;;;;;;
2022/01/03 00:17:11;;;;;;;4.7;3.1;;;;;;;;;;;;;
2022/01/03 00:19:37;;;;;;;3.4;2.4;;;;;;;;;;;;;
2022/01/03 00:22:02;;;;;;;4.4;2.5;;;;;;;;;;;;;
2022/01/03 00:24:27;;;;;;;4.7;2.5;;;;;;;;;;;;;
2022/01/03 00:26:52;;;;;;;3.6;2.4;;;;;;;;;;;;;
2022/01/03 00:29:18;;;;;;;4.5;2.7;;;;;;;;;;;;;
2022/01/03 00:31:43;;;;;;;2.6;2.3;;;;;;;;;;;;;
2022/01/03 00:34:09;;;;;;;4.1;2.4;;;;;;;;;;;;;
2022/01/03 00:36:34;;;;;;;4.3;2.6;;;;;;;;;;;;;
2022/01/03 00:38:59;;;;;;;4.7;2.5;;;;;;;;;;;;;
2022/01/03 00:41:25;;;;;;;3.7;2.7;;;;;;;;;;;;;
2022/01/03 00:43:50;;;;;;;4.5;3;;;;;;;;;;;;;
2022/01/03 00:46:15;;;;;;;4.9;3;;;;;;;;;;;;;
2022/01/03 00:48:40;;;;;;;3.7;2.7;;;;;;;;;;;;;
2022/01/03 00:51:06;;;;;;;3.6;2.7;;;;;;;;;;;;;
2022/01/03 00:53:31;;;;;;;6.2;3;;;;;;;;;;;;;
2022/01/03 00:55:57;;;;;;;4.5;3.2;;;;;;;;;;;;;
2022/01/03 00:58:22;;;;;;;5.4;3.2;;;;;;;;;;;;;
2022/01/03 01:00:48;;;;;;;4;2.8;;;;;;;;;;;;;
2022/01/03 01:03:15;;;;;;;5.7;2.9;;;;;;;;;;;;;
2022/01/03 01:05:38;;;;;;;4.2;2.9;;;;;;;;;;;;;
2022/01/03 01:08:03;;;;;;;5.6;3.4;;;;;;;;;;;;;
2022/01/03 01:10:28;;;;;;;6.1;3.6;;;;;;;;;;;;;
2022/01/03 01:12:54;;;;;;;5;3.3;;;;;;;;;;;;;
2022/01/03 01:15:19;;;;;;;4.4;2.7;;;;;;;;;;;;;
2022/01/03 01:17:45;;;;;;;5;3;;;;;;;;;;;;;
2022/01/03 01:20:11;;;;;;;6.6;3;;;;;;;;;;;;;
2022/01/03 01:22:34;;;;;;;4.3;3;;;;;;;;;;;;;
2022/01/03 01:25:22;;;;;;;5.2;3.2;;;;;;;;;;;;;
2022/01/03 01:29:50;;;;;;;6.8;3.1;;;;;;;;;;;;;
2022/01/03 01:32:16;;;;;;;4.8;3.1;;;;;;;;;;;;;
2022/01/03 01:34:40;;;;;;;5.7;3.4;;;;;;;;;;;;;
2022/01/03 01:37:07;;;;;;;5.3;2.9;;;;;;;;;;;;;
2022/01/03 01:39:32;;;;;;;4.7;3.1;;;;;;;;;;;;;
2022/01/03 01:41:58;;;;;;;5.4;3.4;;;;;;;;;;;;;
2022/01/03 01:44:23;;;;;;;6.1;2.9;;;;;;;;;;;;;
2022/01/03 01:46:49;;;;;;;5.6;2.6;;;;;;;;;;;;;
2022/01/03 01:49:14;;;;;;;5.7;3.1;;;;;;;;;;;;;
2022/01/03 01:51:39;;;;;;;6.6;3.1;;;;;;;;;;;;;
2022/01/03 01:54:04;;;;;;;4.1;2.9;;;;;;;;;;;;;
2022/01/03 01:56:29;;;;;;;4.5;2.9;;;;;;;;;;;;;
2022/01/03 01:58:54;;;;;;;4.2;2.5;;;;;;;;;;;;;
2022/01/03 02:01:20;;;;;;;4;2.9;;;;;;;;;;;;;
2022/01/03 02:03:45;;;;;;;5;2.8;;;;;;;;;;;;;
2022/01/03 02:06:10;;;;;;;4.7;2.9;;;;;;;;;;;;;
2022/01/03 02:08:36;;;;;;;4.4;2.9;;;;;;;;;;;;;
2022/01/03 02:11:02;;;;;;;3.6;2.3;;;;;;;;;;;;;
2022/01/03 02:13:27;;;;;;;4.8;2.4;;;;;;;;;;;;;
2022/01/03 02:15:58;;;;;;;3;2.4;;;;;;;;;;;;;
2022/01/03 02:18:17;;;;;;;6.2;3;;;;;;;;;;;;;
2022/01/03 02:20:43;;;;;;;3.7;2.5;;;;;;;;;;;;;
2022/01/03 02:23:08;;;;;;;4.4;2.4;;;;;;;;;;;;;
2022/01/03 02:25:33;;;;;;;3.7;2.5;;;;;;;;;;;;;
2022/01/03 02:27:59;;;;;;;3.7;2.2;;;;;;;;;;;;;
2022/01/03 02:30:24;;;;;;;3.9;2.3;;;;;;;;;;;;;
2022/01/03 02:32:50;;;;;;;5.5;2.4;;;;;;;;;;;;;
2022/01/03 02:35:15;;;;;;;3.2;2.1;;;;;;;;;;;;;
2022/01/03 02:37:40;;;;;;;3.2;2.3;;;;;;;;;;;;;
2022/01/03 02:40:06;;;;;;;2.8;2.4;;;;;;;;;;;;;
2022/01/03 02:42:31;;;;;;;2.8;2.1;;;;;;;;;;;;;
2022/01/03 02:44:57;;;;;;;4.6;2;;;;;;;;;;;;;
2022/01/03 02:47:23;;;;;;;3.6;2.1;;;;;;;;;;;;;
2022/01/03 02:49:48;;;;;;;3.4;2.3;;;;;;;;;;;;;
2022/01/03 02:52:13;;;;;;;2.5;1.9;;;;;;;;;;;;;
2022/01/03 02:54:38;;;;;;;3.4;2.3;;;;;;;;;;;;;
2022/01/03 02:57:03;;;;;;;2.4;2.1;;;;;;;;;;;;;
2022/01/03 02:59:29;;;;;;;2.5;1.9;;;;;;;;;;;;;
2022/01/03 03:01:54;;;;;;;2.2;1.8;;;;;;;;;;;;;
2022/01/03 03:04:19;;;;;;;4.5;2.3;;;;;;;;;;;;;
2022/01/03 03:06:44;;;;;;;2.3;2.1;;;;;;;;;;;;;
2022/01/03 03:09:09;;;;;;;3.3;2;;;;;;;;;;;;;
2022/01/03 03:11:35;;;;;;;3.2;1.9;;;;;;;;;;;;;
2022/01/03 03:14:00;;;;;;;2.3;2.1;;;;;;;;;;;;;
2022/01/03 03:16:25;;;;;;;2.5;1.9;;;;;;;;;;;;;
2022/01/03 03:18:50;;;;;;;3.4;1.9;;;;;;;;;;;;;
2022/01/03 03:21:15;;;;;;;2.3;1.9;;;;;;;;;;;;;
2022/01/03 03:23:43;;;;;;;2;1.8;;;;;;;;;;;;;
2022/01/03 03:26:08;;;;;;;3.5;2;;;;;;;;;;;;;
2022/01/03 03:28:33;;;;;;;3.2;1.7;;;;;;;;;;;;;
2022/01/03 03:30:59;;;;;;;2.9;1.8;;;;;;;;;;;;;
2022/01/03 03:33:23;;;;;;;2.8;2.1;;;;;;;;;;;;;
2022/01/03 03:35:50;;;;;;;3.8;2;;;;;;;;;;;;;
2022/01/03 03:38:14;;;;;;;5.4;2.1;;;;;;;;;;;;;
2022/01/03 03:40:39;;;;;;;4.5;2.3;;;;;;;;;;;;;
2022/01/03 03:43:05;;;;;;;3.6;1.9;;;;;;;;;;;;;
2022/01/03 03:45:31;;;;;;;6;2.5;;;;;;;;;;;;;
2022/01/03 03:47:57;;;;;;;3.8;2.1;;;;;;;;;;;;;
2022/01/03 03:50:21;;;;;;;6.6;2.2;;;;;;;;;;;;;
2022/01/03 03:52:46;;;;;;;1.9;1.6;;;;;;;;;;;;;
2022/01/03 03:55:11;;;;;;;1.9;1.7;;;;;;;;;;;;;
2022/01/03 03:57:36;;;;;;;3.2;1.9;;;;;;;;;;;;;
2022/01/03 04:00:02;;;;;;;2.8;1.9;;;;;;;;;;;;;
2022/01/03 04:02:34;;;;;;;3;1.6;;;;;;;7.35;70.48242;938.4579;;;;
2022/01/03 04:05:00;;;;;;;1.9;1.7;;;;;;;7.4;70.23047;938.5051;;;;
2022/01/03 04:07:24;;;;;;;1.9;1.5;;;;;;;7.48;68.54199;938.3994;;;;
2022/01/03 04:09:49;;;;;;;3;1.8;;;;;;;7.67;67.54004;938.3219;;;;
2022/01/03 04:12:14;;;;;;;2.4;1.8;;;;;;;7.86;66.56152;938.2515;;;;
2022/01/03 04:14:53;;;;;;;2.4;1.5;;;;;;;8.27;64.25098;938.2795;;;;
2022/01/03 04:17:19;;;;;;;3.5;1.5;;;;;;;8.16;67.18848;938.1599;;;;
2022/01/03 04:19:49;;;;;;;6.7;2.2;;;;;;;8.05;67.3418;938.2753;;;;
2022/01/03 04:22:14;;;;;;;3.9;1.4;;;;;;;8.09;67.10742;938.3585;;;;
2022/01/03 04:24:42;;;;;;;2.3;1.4;;;;;;;8.14;65.60547;938.3085;;;;
2022/01/03 04:27:07;;;;;;;2.6;1.5;;;;;;;8.2;65.77246;938.2518;;;;
2022/01/03 04:29:36;;;;;;;3.3;1.7;;;;;;;8.34;63.31836;938.2867;;;;
2022/01/03 04:32:02;;;;;;;2.3;1.5;;;;;;;8.8;59.70215;938.2625;;;;
2022/01/03 04:34:27;;;;;;;1.4;1.1;;;;;;;10.11;51.69336;938.247;;;;
2022/01/03 04:36:52;;;;;;;1.7;1.3;;;;;;;10.58;51.625;938.1619;;;;
2022/01/03 04:39:17;;;;;;;6.3;3.6;;;;;;;10.67;52.1377;938.2307;;;;
2022/01/03 04:41:43;;;;;;;4.2;2.3;;;;;;;10.86;49.57813;938.1919;;;;
2022/01/03 04:44:08;;;;;;;5.4;2.3;;;;;;;11.01;48.98926;938.1312;;;;
2022/01/03 04:46:34;;;;;;;1.4;1;;;;;;;11.55;46.69336;938.2006;;;;
2022/01/03 04:48:58;;;;;;;1.5;1.4;;;;;;;11.77;46.28125;938.1772;;;;
2022/01/03 04:51:25;;;;;;;1.5;1.1;;;;;;;11.95;44.49121;938.2823;;;;
2022/01/03 04:53:50;;;;;;;1.4;1;;;;;;;11.89;44.29004;938.1425;;;;
2022/01/03 04:56:15;;;;;;;3.6;1.2;;;;;;;12.01;44.83008;938.1213;;;;
2022/01/03 04:58:40;;;;;;;2.7;1.1;;;;;;;11.89;46.16797;938.1448;;;;
2022/01/03 05:01:09;;;;;;;1.7;1.2;;;;;;;11.65;49.02734;938.0961;;;;
2022/01/03 05:03:33;;;;;;;17.7;2.3;;;;;;;11.34;50.45703;938.1099;;;;
2022/01/03 05:06:01;;;;;;;2.7;1.2;;;;;;;11;51.9707;938.1164;;;;
2022/01/03 05:08:25;;;;;;;1.6;1.1;;;;;;;10.69;53.76172;938.0285;;;;
2022/01/03 05:10:53;;;;;;;2.9;1.4;;;;;;;10.67;54.62695;937.9272;;;;
2022/01/03 05:13:18;;;;;;;2.9;1.3;;;;;;;10.53;56.92773;938.0412;;;;
2022/01/03 05:15:49;;;;;;;3.3;1.5;;;;;;;10.48;54.78613;938.2278;;;;
2022/01/03 05:18:17;;;;;;;1.4;1.1;;;;;;;10.64;53.75488;938.2861;;;;
2022/01/03 05:20:42;;;;;;;1.9;1.2;;;;;;;10.77;52.95898;938.3971;;;;
2022/01/03 05:23:08;;;;;;;3.1;1.3;;;;;;;11.01;53.39063;938.4847;;;;
2022/01/03 05:25:33;;;;;;;1.8;1.2;;;;;;;11.1;52.57715;938.4131;;;;
2022/01/03 05:27:58;;;;;;;1.8;1.3;;;;;;;11.23;51.50684;938.463;;;;
2022/01/03 05:30:23;;;;;;;2.2;1.5;;;;;;;11.16;54.23145;938.5634;;;;
2022/01/03 05:32:48;;;;;;;2.5;1.5;;;;;;;11.19;55.43555;938.6505;;;;
2022/01/03 05:35:15;;;;;;;3;1.4;;;;;;;11.15;55.37402;938.7299;;;;
2022/01/03 05:37:40;;;;;;;2.1;1.4;;;;;;;11.05;56.28613;938.7586;;;;
2022/01/03 05:40:05;;;;;;;5.1;1.7;;;;;;;10.95;56.68652;938.7559;;;;
2022/01/03 05:42:30;;;;;;;2.5;1.6;;;;;;;10.75;55.05957;938.7179;;;;
2022/01/03 05:44:58;;;;;;;2.5;1.6;;;;;;;10.57;57.30957;938.7111;;;;
2022/01/03 05:47:23;;;;;;;3;1.2;;;;;;;10.51;56.55859;938.775;;;;
2022/01/03 05:49:49;;;;;;;4.7;1.9;;;;;;;10.47;58.32227;938.9147;;;;
2022/01/03 05:52:13;;;;;;;3.6;1.9;;;;;;;10.36;57.97656;938.9617;;;;
2022/01/03 05:54:39;;;;;;;2;1.3;;;;;;;10.31;57.12598;939.0989;;;;
2022/01/03 05:57:04;;;;;;;1.4;1.1;;;;;;;10.64;56.48438;939.1692;;;;
2022/01/03 05:59:31;;;;;;;2.3;1.6;;;;;;;10.65;57.82227;939.0889;;;;
2022/01/03 06:01:56;;;;;;;2;1.1;;;;;;;10.79;56.75586;939.1834;;;;
2022/01/03 06:04:24;;;;;;;3.4;1.5;;;;;;;10.85;58.03125;939.2703;;;;
2022/01/03 06:06:57;;;;;;;3.6;2.1;;;;;;;10.75;58.94434;939.2635;;;;
2022/01/03 06:09:13;;;;;;;2.6;1.7;;;;;;;10.46;59.28027;939.3405;;;;
2022/01/03 06:11:41;;;;;;;4.5;1.8;;;;;;;10.44;60.13379;939.2917;;;;
2022/01/03 06:14:06;;;;;;;2.4;1.2;;;;;;;10.52;60.13379;939.3706;;;;
2022/01/03 06:16:36;;;;;;;3;1.3;;;;;;;10.51;60.43066;939.1676;;;;
2022/01/03 06:19:04;;;;;;;3.7;1.5;;;;;;;10.34;60.87305;939.1231;;;;
2022/01/03 06:21:30;;;;;;;3;1.3;;;;;;;10.39;62.06738;939.1468;;;;
2022/01/03 06:23:55;;;;;;;2.5;1.9;;;;;;;10.21;62.69238;939.2573;;;;
2022/01/03 06:26:21;;;;;;;3.5;1.8;;;;;;;10.09;63.29102;939.1746;;;;
2022/01/03 06:28:46;;;;;;;3.7;1.8;;;;;;;10.09;63.33691;939.2667;;;;
2022/01/03 06:31:11;;;;;;;3.2;1.7;;;;;;;9.94;63.48633;939.1055;;;;
2022/01/03 06:33:36;;;;;;;3.1;1.8;;;;;;;9.96;63.72852;939.1725;;;;
2022/01/03 06:36:03;;;;;;;2.6;1.7;;;;;;;9.98;63.74316;939.2388;;;;
2022/01/03 06:38:28;;;;;;;3;1.7;;;;;;;9.93;64.03125;939.2206;;;;
2022/01/03 06:40:55;;;;;;;2.3;1.6;;;;;;;9.93;64.17969;939.2525;;;;
2022/01/03 06:43:19;;;;;;;2.9;1.7;;;;;;;9.96;64.01367;939.2307;;;;
2022/01/03 06:45:44;;;;;;;7.5;3.7;;;;;;;9.82;64.27734;939.1691;;;;
2022/01/03 06:48:09;;;;;;;3.6;1.3;;;;;;;9.89;64.4248;939.368;;;;
2022/01/03 06:50:36;;;;;;;3.5;1.3;;;;;;;10.08;62.84473;939.2388;;;;
2022/01/03 06:53:00;;;;;;;2.8;1.3;;;;;;;9.99;63.97363;939.3837;;;;
2022/01/03 06:55:29;;;;;;;2.3;1.2;;;;;;;10.08;64.13379;939.3008;;;;
2022/01/03 06:57:54;;;;;;;3.1;1.4;;;;;;;10.16;64.26953;939.3575;;;;
2022/01/03 07:00:20;;;;;;;3.3;1.3;;;;;;;10.15;63.99609;939.3367;;;;
2022/01/03 07:02:45;;;;;;;2.6;1.6;;;;;;;10.16;63.9502;939.0862;;;;
2022/01/03 07:05:10;;;;;;;3;1.3;;;;;;;10.01;64.66016;939.1234;;;;
2022/01/03 07:07:35;;;;;;;2.7;1.1;;;;;;;10.08;64.53125;939.1448;;;;
2022/01/03 07:10:02;;;;;;;2.4;1.2;;;;;;;9.93;64.64648;939.2302;;;;
2022/01/03 07:12:27;;;;;;;3.4;1.8;;;;;;;10.02;64.31934;939.2325;;;;
2022/01/03 07:19:44;;;;;;;2.8;1.8;;;;;;;9.96;65.29102;939.1344;;;;
2022/01/03 07:22:09;;;;;;;7.1;1.8;;;;;;;9.96;64.8457;939.1877;;;;
2022/01/03 07:24:34;;;;;;;2.4;1.5;;;;;;;9.93;64.90918;939.2015;;;;
2022/01/03 07:27:11;;;;;;;2.1;1.1;;;;;;;10;64.76074;939.1459;;;;
2022/01/03 07:29:37;;;;;;;3.6;1.6;;;;;;;9.94;64.77539;939.294;;;;
2022/01/03 07:32:02;;;;;;;2.6;1.6;;;;;;;10.04;63.64941;939.2534;;;;
2022/01/03 07:34:29;;;;;;;2.6;1.3;;;;;;;10.22;63.58301;939.2555;;;;
2022/01/03 07:36:54;;;;;;;3.4;2.3;;;;;;;10.28;62.36035;939.3875;;;;
2022/01/03 07:39:24;;;;;;;3.9;2.2;;;;;;;10.42;61.43359;939.2151;;;;
2022/01/03 07:41:49;;;;;;;6.8;3.5;;;;;;;10.51;61.38965;939.3173;;;;
2022/01/03 07:44:16;;;;;;;7.2;4.1;;;;;;;10.46;61.38086;939.3723;;;;
2022/01/03 07:46:41;;;;;;;2.6;1.1;;;;;;;10.54;60.06738;939.1877;;;;
2022/01/03 07:49:07;;;;;;;3.4;1.5;;;;;;;10.69;58.26172;939.2733;;;;
2022/01/03 07:51:32;;;;;;;3.5;1.3;;;;;;;10.84;59.40234;939.1867;;;;
2022/01/03 07:53:59;;;;;;;5.8;1.3;;;;;;;10.81;59.31836;939.1768;;;;
2022/01/03 07:56:24;;;;;;;1.5;1;;;;;;;11.17;55.62793;939.0783;;;;
2022/01/03 07:58:49;;;;;;;2.9;1.1;;;;;;;11.01;56.22461;939.1367;;;;
2022/01/03 08:01:15;;;;;;;2.9;1.5;;;;;;;10.99;57.28516;939.0789;;;;
2022/01/03 08:03:43;;;;;;;4.7;1.4;;;;;;;11.05;57.91016;938.9291;;;;
2022/01/03 08:06:08;;;;;;;5.5;1.4;;;;;;;11;58.22266;938.9236;;;;
2022/01/03 08:08:33;;;;;;;5.2;1.5;;;;;;;11.02;58.70703;939.0076;;;;
2022/01/03 08:10:58;;;;;;;3;1.5;;;;;;;11.09;58.51074;939.0689;;;;
2022/01/03 08:13:26;;;;;;;2.5;0.9;;;;;;;11.09;55.22949;938.9231;;;;
2022/01/03 08:15:52;;;;;;;1.5;0.9;;;;;;;11.34;53.32715;938.7316;;;;
2022/01/03 08:18:17;;;;;;;2.4;1.2;;;;;;;11.58;53.40332;939.0461;;;;
2022/01/03 08:20:42;;;;;;;3;0.9;;;;;;;11.68;54.86914;939.0231;;;;
2022/01/03 08:23:25;;;;;;;6.1;1.1;;;;;;;11.7;53.10938;939.1198;;;;
2022/01/03 08:25:50;;;;;;;7.3;1.2;;;;;;;11.85;50.83691;939.008;;;;
2022/01/03 08:28:16;;;;;;;5.5;1.2;;;;;;;12.13;50.06641;939.0472;;;;
2022/01/03 08:30:41;;;;;;;7.5;1.4;;;;;;;12.19;49.76563;938.8822;;;;
2022/01/03 08:33:06;;;;;;;2.3;1.2;;;;;;;12.45;47.68555;938.8582;;;;
2022/01/03 08:35:34;;;;;;;6.2;1.6;;;;;;;12.63;47.56641;938.9084;;;;
2022/01/03 08:37:59;;;;;;;4.9;1.4;;;;;;;12.62;47.7373;938.9628;;;;
2022/01/03 08:40:39;;;;;;;2.9;0.7;;;;;;;12.66;45.92969;938.8638;;;;
2022/01/03 08:43:06;;;;;;;2.6;1.4;;;;;;;12.58;46.78027;938.8217;;;;
2022/01/03 08:45:31;;;;;;;6.4;2;;;;;;;12.63;46.88965;938.851;;;;
2022/01/03 08:47:58;;;;;;;5;1.6;;;;;;;12.91;48.1709;938.9652;;;;
2022/01/03 08:50:23;;;;;;;2.9;1.3;;;;;;;12.94;45.98145;938.923;;;;
2022/01/03 08:52:49;;;;;;;3.4;1.2;;;;;;;13.05;45.16602;938.9874;;;;
2022/01/03 08:55:14;;;;;;;3.3;1.2;;;;;;;13.16;45.37305;938.8786;;;;
2022/01/03 08:57:41;;;;;;;7.7;1.1;;;;;;;13;44.25488;938.8751;;;;
2022/01/03 09:00:05;;;;;;;6.3;1.5;;;;;;;13.02;45.75977;938.9281;;;;
2022/01/03 09:02:33;;;;;;;7.4;1.9;;;;;;;13.25;44.34863;938.9744;;;;
2022/01/03 09:04:58;;;;;;;4.5;1.3;;;;;;;13.11;43.87402;939.0817;;;;
2022/01/03 09:07:25;;;;;;;3.5;0.7;;;;;;;13.07;43.56055;939.1264;;;;
2022/01/03 09:09:50;;;;;;;2;1;;;;;;;12.95;42.8252;939.0916;;;;
2022/01/03 09:12:19;;;;;;;2.1;0.6;;;;;;;13.06;43.84668;939.2023;;;;
2022/01/03 09:14:49;;;;;;;2.9;0.8;;;;;;;12.93;43.24805;939.1475;;;;
2022/01/03 09:17:18;;;;;;;1.3;0.8;;;;;;;12.99;43.82813;939.1428;;;;
2022/01/03 09:19:43;;;;;;;2.7;0.8;;;;;;;13.11;45.44824;939.1633;;;;
2022/01/03 09:22:16;;;;;;;3;1.7;;;;;;;13.32;44.75684;939.2224;;;;
2022/01/03 09:24:47;;;;;;;3.4;0.7;;;;;;;13.15;43.28027;938.8906;;;;
2022/01/03 09:29:32;;;;;;;2;0.5;;;;;;;13.12;43.2207;939.0961;;;;
2022/01/03 09:31:57;;;;;;;3.4;1;;;;;;;13.22;43.78223;939.1448;;;;
2022/01/03 09:34:27;;;;;;;2.7;0.7;;;;;;;13.32;42.18359;938.968;;;;
2022/01/03 09:36:52;;;;;;;3;1.1;;;;;;;13.44;43.42578;938.9635;;;;
2022/01/03 09:39:20;;;;;;;7.7;1.7;;;;;;;13.51;43.43164;939.0499;;;;
2022/01/03 09:41:44;;;;;;;3;0.6;;;;;;;13.46;42.21973;938.9931;;;;
2022/01/03 09:44:22;;;;;;;3.1;0.8;;;;;;;13.39;41.83496;938.8976;;;;
2022/01/03 09:46:44;;;;;;;3.8;0.8;;;;;;;13.42;42.46875;938.9139;;;;
2022/01/03 09:49:09;;;;;;;1.1;0.8;;;;;;;13.3;43.53711;938.932;;;;
2022/01/03 09:51:36;;;;;;;2.3;0.7;;;;;;;13.19;43.7793;938.9749;;;;
2022/01/03 09:54:01;;;;;;;5;1.1;;;;;;;13.25;43.72852;938.9425;;;;
2022/01/03 09:56:26;;;;;;;9.5;2;;;;;;;13.33;44.03516;938.9456;;;;
2022/01/03 09:58:52;;;;;;;2.9;0.8;;;;;;;13.25;43.6709;938.9409;;;;
2022/01/03 10:01:28;;;;;;;2.3;0.8;;;;;;;13.28;44.63867;938.9648;;;;
2022/01/03 10:03:54;;;;;;;4.2;0.9;;;;;;;13.33;44.16113;939.0544;;;;
2022/01/03 10:06:19;;;;;;;1.7;0.7;;;;;;;13.33;43.71289;939.1256;;;;
2022/01/03 10:08:45;;;;;;;3.5;0.9;;;;;;;13.25;42.44141;939.0688;;;;
2022/01/03 10:11:10;;;;;;;1.4;0.9;;;;;;;13.43;43.14844;939.1091;;;;
2022/01/03 10:13:38;;;;;;;1.7;0.7;;;;;;;13.4;43.05273;938.9497;;;;
2022/01/03 10:16:03;;;;;;;1.4;0.7;;;;;;;13.36;43.25684;938.9944;;;;
2022/01/03 10:18:28;;;;;;;3;0.8;;;;;;;13.39;44.89063;939.0648;;;;
2022/01/03 10:20:54;;;;;;;9.8;1.4;;;;;;;13.44;43.37891;938.9595;;;;
2022/01/03 10:23:19;;;;;;;3.5;2.3;;;;;;;13.37;43.48828;938.9553;;;;
2022/01/03 10:25:45;;;;;;;3.6;0.8;;;;;;;13.29;43.05371;938.9785;;;;
2022/01/03 10:28:09;;;;;;;2.3;0.6;;;;;;;13.51;43.30566;938.9339;;;;
2022/01/03 10:30:35;;;;;;;3.2;0.8;;;;;;;13.52;42.93945;938.973;;;;
2022/01/03 10:33:00;;;;;;;2.6;0.7;;;;;;;13.6;42.69434;938.981;;;;
2022/01/03 10:35:30;;;;;;;5;0.5;;;;;;;13.59;42.57715;938.8642;;;;
2022/01/03 10:37:55;;;;;;;2;0.6;;;;;;;13.65;43.25098;938.7828;;;;
2022/01/03 10:40:20;;;;;;;2.7;0.8;;;;;;;13.73;42.90137;938.8675;;;;
2022/01/03 10:42:46;;;;;;;2.5;0.7;;;;;;;13.7;42.1748;938.829;;;;
2022/01/03 10:45:10;;;;;;;3.6;0.8;;;;;;;14.1;43.26074;938.8735;;;;
2022/01/03 10:47:41;;;;;;;2.5;0.5;;;;;;;14.08;41.09473;938.7567;;;;
2022/01/03 10:50:00;;;;;;;2.8;1;;;;;;;14.25;41.65234;938.8572;;;;
2022/01/03 10:52:29;;;;;;;2.2;0.8;;;;;;;14.14;41.57227;938.7925;;;;
2022/01/03 10:54:53;;;;;;;3;0.8;;;;;;;14.21;42.60352;938.8923;;;;
2022/01/03 10:57:20;;;;;;;2.7;1;;;;;;;14.32;41.44043;938.6063;;;;
2022/01/03 10:59:50;;;;;;;2.6;0.9;;;;;;;13.91;40.97461;938.7338;;;;
2022/01/03 11:02:15;;;;;;;6;1.2;;;;;;;13.89;40.9043;938.7225;;;;
2022/01/03 11:05:03;;;;;;;7.8;1.4;;;;;;;13.84;41.29102;938.6337;;;;
2022/01/03 11:12:20;;;;;;;2.1;0.7;;;;;;;13.66;41.80371;938.5731;;;;
2022/01/03 11:14:45;;;;;;;2.6;0.7;;;;;;;13.66;42.78027;938.5411;;;;
2022/01/03 11:17:13;;;;;;;1.2;0.5;;;;;;;13.48;41.39453;938.4331;;;;
2022/01/03 11:19:38;;;;;;;1.9;0.8;;;;;;;13.31;41.83887;938.4658;;;;
2022/01/03 11:22:03;;;;;;;1.4;0.7;;;;;;;13.49;42.61328;938.5051;;;;
2022/01/03 11:24:28;;;;;;;1.9;0.7;;;;;;;13.45;41.79297;938.4691;;;;
2022/01/03 11:26:54;;;;;;;2.1;0.8;;;;;;;13.55;43.37988;938.4522;;;;
2022/01/03 11:29:19;;;;;;;2;0.7;;;;;;;13.52;42.35156;938.4242;;;;
2022/01/03 11:31:46;;;;;;;2.4;0.6;;;;;;;13.43;42.29785;938.286;;;;
2022/01/03 11:34:11;;;;;;;3.5;0.5;;;;;;;13.49;43.16602;938.3547;;;;
2022/01/03 11:36:39;;;;;;;2.6;0.7;;;;;;;13.59;43.23242;938.3089;;;;
2022/01/03 11:39:04;;;;;;;6.6;1;;;;;;;13.42;42.82617;938.3084;;;;
2022/01/03 11:41:29;;;;;;;3.3;0.9;;;;;;;13.28;43.31836;938.1755;;;;
2022/01/03 11:43:54;;;;;;;3.6;0.6;;;;;;;13.26;41.78711;938.2028;;;;
2022/01/03 11:46:22;;;;;;;13.8;2.3;;;;;;;13.38;42.97168;938.2554;;;;
2022/01/03 11:48:47;;;;;;;2;0.9;;;;;;;13.27;42.12109;938.1716;;;;
2022/01/03 11:51:13;;;;;;;2.3;0.7;;;;;;;13.48;43.30371;938.1044;;;;
2022/01/03 11:53:38;;;;;;;2.4;0.7;;;;;;;13.33;41.98926;938.1699;;;;
2022/01/03 11:56:04;;;;;;;11.3;2;;;;;;;13.08;42.6543;938.0016;;;;
2022/01/03 11:58:40;;;;;;;1.1;0.6;;;;;;;12.96;43.7207;938.0173;;;;
2022/01/03 12:05:44;;;;;;;2.9;0.7;;;;;;;12.72;45.4541;937.8661;;;;
2022/01/03 12:08:09;;;;;;;1.7;0.5;;;;;;;12.7;44.7627;937.8764;;;;
2022/01/03 12:10:34;;;;;;;1.9;1;;;;;;;12.74;44.68652;937.8661;;;;
2022/01/03 12:13:02;;;;;;;1.8;0.7;;;;;;;12.7;44.74023;937.8756;;;;
2022/01/03 12:15:27;;;;;;;4.2;1.4;;;;;;;12.7;45.1416;937.8533;;;;
2022/01/03 12:17:52;;;;;;;1.4;1.1;;;;;;;12.83;44.77637;937.8616;;;;
2022/01/03 12:20:17;;;;;;;0.8;0.4;;;;;;;12.78;45.09277;937.8652;;;;
2022/01/03 12:22:42;;;;;;;3;0.7;;;;;;;12.86;44.63086;937.916;;;;
2022/01/03 12:25:10;;;;;;;1;0.6;;;;;;;12.94;44.57031;937.8903;;;;
2022/01/03 12:27:35;;;;;;;1.3;0.8;;;;;;;13.06;44.86914;937.8273;;;;
2022/01/03 12:30:03;;;;;;;1.8;0.6;;;;;;;13.11;44.3916;937.8353;;;;
2022/01/03 12:32:28;;;;;;;3.8;1.7;;;;;;;13.15;45.06152;937.8384;;;;
2022/01/03 12:34:53;;;;;;;3.6;1.1;;;;;;;12.99;44.73535;937.8823;;;;
2022/01/03 12:37:18;;;;;;;2.5;1;;;;;;;13.08;45.2959;937.9033;;;;
2022/01/03 12:39:43;;;;;;;1.7;0.8;;;;;;;13.05;45.26953;937.865;;;;
2022/01/03 12:42:09;;;;;;;0.9;0.6;;;;;;;12.88;44.83789;937.8495;;;;
2022/01/03 12:44:34;;;;;;;1.5;0.9;;;;;;;12.84;45.21289;937.8192;;;;
2022/01/03 12:46:59;;;;;;;0.8;0.5;;;;;;;12.82;45.22363;937.8152;;;;
2022/01/03 12:49:24;;;;;;;2;0.7;;;;;;;12.69;45.51953;937.6703;;;;
2022/01/03 12:51:51;;;;;;;1;0.8;;;;;;;12.6;45.2334;937.6548;;;;
2022/01/03 12:54:16;;;;;;;2.2;1.3;;;;;;;12.71;46.98926;937.628;;;;
2022/01/03 12:56:42;;;;;;;1.7;0.8;;;;;;;12.7;48.19434;937.532;;;;
2022/01/03 12:59:08;;;;;;;0.8;0.4;;;;;;;12.54;47.5459;937.5852;;;;
2022/01/03 13:01:34;;;;;;;1.5;0.7;;;;;;;12.39;47.0127;937.5106;;;;
2022/01/03 13:03:59;;;;;;;1.9;1;;;;;;;12.61;47.89844;937.6136;;;;
2022/01/03 13:06:24;;;;;;;1.2;0.5;;;;;;;12.86;47.30469;937.6314;;;;
2022/01/03 13:08:49;;;;;;;3.3;0.6;;;;;;;12.79;48.26172;937.5728;;;;
2022/01/03 13:11:14;;;;;;;1.4;0.4;;;;;;;12.8;46.62109;937.4953;;;;
2022/01/03 13:13:39;;;;;;;3.2;0.7;;;;;;;12.91;46.2666;937.5611;;;;
2022/01/03 13:16:07;;;;;;;3.5;1.4;;;;;;;12.83;48.15039;937.5659;;;;
2022/01/03 13:18:35;;;;;;;1.9;1.1;;;;;;;12.82;48.44922;937.6291;;;;
2022/01/03 13:21:00;;;;;;;1.2;0.7;;;;;;;12.72;47.875;937.6328;;;;
2022/01/03 13:23:25;;;;;;;2;0.6;;;;;;;12.46;47.19336;937.5995;;;;
2022/01/03 13:25:50;;;;;;;1.2;0.7;;;;;;;12.49;47.82715;937.6459;;;;
2022/01/03 13:28:18;;;;;;;0.5;0.5;;;;;;;12.48;48.21582;937.6188;;;;
2022/01/03 13:30:43;;;;;;;0.8;0.5;;;;;;;12.6;47.17188;937.6803;;;;
2022/01/03 13:33:08;;;;;;;1.5;0.5;;;;;;;12.3;48.7002;937.5592;;;;
2022/01/03 13:35:34;;;;;;;1.4;1;;;;;;;12.36;48.91211;937.5664;;;;
2022/01/03 13:38:00;;;;;;;2.3;0.9;;;;;;;12.52;50.36426;937.5972;;;;
2022/01/03 13:40:25;;;;;;;2.2;1.1;;;;;;;12.35;50.63184;937.5768;;;;
2022/01/03 13:43:06;;;;;;;5.8;1.3;;;;;;;12.29;52.21875;937.4713;;;;
2022/01/03 13:50:07;;;;;;;1.8;0.9;;;;;;;11.95;52.1084;937.4253;;;;
2022/01/03 13:52:33;;;;;;;2.3;1.1;;;;;;;11.83;52.52832;937.4514;;;;
2022/01/03 13:55:02;;;;;;;5.7;1.9;;;;;;;11.94;52.53125;937.4325;;;;
2022/01/03 13:57:23;;;;;;;2.9;1.4;;;;;;;12.04;52.0625;937.3469;;;;
2022/01/03 13:59:48;;;;;;;2.9;1;;;;;;;12.26;51.41309;937.4074;;;;
2022/01/03 14:02:13;;;;;;;1.9;1;;;;;;;12.49;51.1875;937.3649;;;;
2022/01/03 14:04:38;;;;;;;4.1;1.1;;;;;;;12.64;51.30762;937.481;;;;
2022/01/03 14:07:04;;;;;;;1.7;1.4;;;;;;;12.4;51.14258;937.4387;;;;
2022/01/03 14:09:29;;;;;;;1.6;0.8;;;;;;;12.48;50.99023;937.3248;;;;
2022/01/03 14:11:54;;;;;;;1.5;1;;;;;;;12.38;50.55566;937.3964;;;;
2022/01/03 14:14:20;;;;;;;1.8;1.2;;;;;;;12.39;50.43066;937.3692;;;;
2022/01/03 14:16:45;;;;;;;3.1;1.3;;;;;;;12.52;50.90332;937.34;;;;
2022/01/03 14:19:10;;;;;;;1.7;1.5;;;;;;;12.4;50.62598;937.2798;;;;
2022/01/03 14:21:35;;;;;;;2.6;1.3;;;;;;;12.56;50.41504;937.3369;;;;
2022/01/03 14:24:00;;;;;;;2.3;1.4;;;;;;;12.48;50.39355;937.2274;;;;
2022/01/03 14:26:26;;;;;;;1.9;1.1;;;;;;;12.53;50.38867;937.1436;;;;
2022/01/03 14:28:54;;;;;;;0.8;0.6;;;;;;;12.6;50.05176;937.0932;;;;
2022/01/03 14:31:20;;;;;;;3.2;1;;;;;;;12.68;50.78418;937.0376;;;;
2022/01/03 14:33:45;;;;;;;1.1;0.8;;;;;;;12.29;51.50684;936.9092;;;;
2022/01/03 14:36:13;;;;;;;1.4;0.8;;;;;;;12.33;51.76465;936.8119;;;;
2022/01/03 14:38:40;;;;;;;3.6;1.2;;;;;;;11.91;52.97363;936.8929;;;;
2022/01/03 14:41:03;;;;;;;3.9;1.2;;;;;;;11.92;52.76953;936.8459;;;;
2022/01/03 14:43:28;;;;;;;2.2;1.2;;;;;;;11.89;53.02832;936.7502;;;;
2022/01/03 14:45:54;;;;;;;2.3;0.7;;;;;;;11.85;52.39551;936.6959;;;;
2022/01/03 14:48:19;;;;;;;1.5;0.7;;;;;;;12.05;52.33691;936.6398;;;;
2022/01/03 14:50:44;;;;;;;4.3;1.2;;;;;;;12.16;53.1875;936.6494;;;;
2022/01/03 14:53:09;;;;;;;16.9;8.9;;;;;;;12.19;53.15723;936.592;;;;
2022/01/03 14:55:35;;;;;;;11;5.1;;;;;;;12.23;53.08203;936.5723;;;;
2022/01/03 14:58:01;;;;;;;14.2;6.2;;;;;;;12.18;53.59082;936.5017;;;;
2022/01/03 15:00:28;;;;;;;11.7;7.4;;;;;;;12.15;54.0918;936.481;;;;
2022/01/03 15:02:53;;;;;;;21;11.8;;;;;;;12.07;54.21973;936.4738;;;;
2022/01/03 15:05:18;;;;;;;17.7;8.4;;;;;;;12.01;55.15234;936.4551;;;;
2022/01/03 15:07:43;;;;;;;18.1;9.6;;;;;;;11.95;55.27051;936.4366;;;;
2022/01/03 15:10:10;;;;;;;19.8;9.2;;;;;;;11.91;54.64551;936.4047;;;;
2022/01/03 15:12:36;;;;;;;21.7;9.7;;;;;;;11.79;55.03027;936.3898;;;;
2022/01/03 15:15:01;;;;;;;15.6;7.6;;;;;;;11.7;56.95508;936.4668;;;;
2022/01/03 15:17:26;;;;;;;14.5;7.4;;;;;;;11.66;57.09961;936.4675;;;;
2022/01/03 15:19:51;;;;;;;23.9;5.2;;;;;;;11.61;55.9707;936.5073;;;;
2022/01/03 15:22:22;;;;;;;11.5;4.2;;;;;;;11.47;56.35254;936.446;;;;
2022/01/03 15:24:49;;;;;;;8;3.3;;;;;;;11.41;55.98047;936.4378;;;;
2022/01/03 15:27:16;;;;;;;10.6;4.2;;;;;;;11.42;56.02734;936.3956;;;;
2022/01/03 15:29:40;;;;;;;12.4;4.4;;;;;;;11.28;57.10645;936.3511;;;;
2022/01/03 15:32:05;;;;;;;5.9;2.7;;;;;;;11.1;58.05469;936.3557;;;;
2022/01/03 15:34:30;;;;;;;48;17.2;;;;;;;11.05;58.61914;936.3132;;;;
2022/01/03 15:36:57;;;;;;;114.9;45.6;;;;;;;10.95;58.58203;936.2424;;;;
2022/01/03 15:39:22;;;;;;;63.4;26.7;;;;;;;10.85;59.06055;936.2148;;;;
2022/01/03 15:41:48;;;;;;;23.3;8.6;;;;;;;10.71;59.61328;936.1859;;;;
2022/01/03 15:44:13;;;;;;;6.8;2.8;;;;;;;10.71;60.39941;936.1875;;;;
2022/01/03 15:46:40;;;;;;;11.4;4.4;;;;;;;10.54;60.61523;936.1425;;;;
2022/01/03 15:49:04;;;;;;;13.2;4.6;;;;;;;10.5;60.1084;936.073;;;;
2022/01/03 15:51:58;;;;;;;19.5;8.9;;;;;;;10.41;60.68945;936.0271;;;;
2022/01/03 15:54:22;;;;;;;17.9;5.2;;;;;;;10.45;60.75293;936.0106;;;;
2022/01/03 15:56:48;;;;;;;15.1;4.9;;;;;;;10.33;60.65527;935.9753;;;;